| time (UTC) | temp F | wind direction | speed MPH | gust MPH | rain 1hr in | rain 24hr in | rain mn in | humidity % | barometer mb |
| 20260510133007 | 38 | 312 | 2.0 | 10.0 | 0.00 | 0.00 | 0.00 | 52 | 1021.5 |
| 20260510131508 | 36 | 280 | 1.0 | 8.0 | 0.00 | 0.00 | 0.00 | 55 | 1021.3 |
| 20260510130009 | 35 | 317 | 1.0 | 7.0 | 0.00 | 0.00 | 0.00 | 57 | 1021.3 |
| 20260510124508 | 34 | 273 | 2.0 | 9.0 | 0.00 | 0.00 | 0.00 | 59 | 1021.0 |
| 20260510123005 | 33 | 321 | 4.0 | 10.0 | 0.00 | 0.00 | 0.00 | 59 | 1020.6 |
| 20260510121507 | 31 | 302 | 3.0 | 9.0 | 0.00 | 0.00 | 0.00 | 62 | 1020.4 |
| 20260510120011 | 29 | 277 | 2.0 | 4.0 | 0.00 | 0.00 | 0.00 | 65 | 1020.3 |
| 20260510114517 | 28 | 313 | 0.0 | 2.0 | 0.00 | 0.00 | 0.00 | 66 | 1019.8 |
| 20260510113011 | 28 | 313 | 0.0 | 3.0 | 0.00 | 0.00 | 0.00 | 66 | 1019.7 |
| 20260510111520 | 28 | 313 | 0.0 | 2.0 | 0.00 | 0.00 | 0.00 | 66 | 1019.8 |
| 20260510110014 | 28 | 313 | 0.0 | 2.0 | 0.00 | 0.00 | 0.00 | 65 | 1019.6 |
| 20260510104512 | 28 | 313 | 0.0 | 2.0 | 0.00 | 0.00 | 0.00 | 65 | 1019.4 |
| 20260510103013 | 29 | 313 | 0.0 | 2.0 | 0.00 | 0.00 | 0.00 | 63 | 1019.0 |
| 20260510101513 | 31 | 360 | 0.0 | 3.0 | 0.00 | 0.00 | 0.00 | 62 | 1018.9 |
| 20260510100010 | 32 | 360 | 2.0 | 8.0 | 0.00 | 0.00 | 0.00 | 61 | 1018.7 |
| 20260510094515 | 32 | 360 | 1.0 | 5.0 | 0.00 | 0.00 | 0.00 | 60 | 1018.4 |
| 20260510093017 | 33 | 319 | 1.0 | 7.0 | 0.00 | 0.00 | 0.00 | 60 | 1018.3 |
| 20260510091516 | 34 | 360 | 2.0 | 8.0 | 0.00 | 0.00 | 0.00 | 60 | 1018.1 |
| 20260510090016 | 35 | 360 | 3.0 | 9.0 | 0.00 | 0.00 | 0.00 | 59 | 1018.0 |
| 20260510084510 | 35 | 360 | 4.0 | 11.0 | 0.00 | 0.00 | 0.00 | 62 | 1017.9 |
| 20260510083017 | 35 | 296 | 1.0 | 7.0 | 0.00 | 0.00 | 0.00 | 63 | 1017.7 |
| 20260510081514 | 35 | 360 | 1.0 | 5.0 | 0.00 | 0.00 | 0.00 | 63 | 1017.5 |
| 20260510080020 | 35 | 297 | 1.0 | 4.0 | 0.00 | 0.00 | 0.00 | 61 | 1017.3 |
| 20260510074523 | 36 | 298 | 1.0 | 5.0 | 0.00 | 0.00 | 0.00 | 59 | 1017.2 |
| 20260510073010 | 37 | 292 | 1.0 | 6.0 | 0.00 | 0.00 | 0.00 | 58 | 1017.1 |
| 20260510071519 | 38 | 260 | 1.0 | 7.0 | 0.00 | 0.00 | 0.00 | 56 | 1017.0 |
| 20260510070020 | 39 | 319 | 2.0 | 8.0 | 0.00 | 0.00 | 0.00 | 55 | 1016.8 |
| 20260510064517 | 39 | 315 | 1.0 | 8.0 | 0.00 | 0.00 | 0.00 | 54 | 1016.6 |
| 20260510063010 | 40 | 326 | 2.0 | 8.0 | 0.00 | 0.00 | 0.00 | 52 | 1016.4 |
| 20260510061515 | 40 | 321 | 0.0 | 2.0 | 0.00 | 0.00 | 0.00 | 53 | 1016.3 |
| 20260510060017 | 40 | 312 | 0.0 | 6.0 | 0.00 | 0.00 | 0.00 | 54 | 1016.1 |
| 20260510054520 | 40 | 298 | 1.0 | 4.0 | 0.00 | 0.00 | 0.00 | 53 | 1016.0 |
| 20260510053019 | 41 | 299 | 0.0 | 3.0 | 0.00 | 0.00 | 0.00 | 53 | 1015.8 |
| 20260510051508 | 41 | 300 | 1.0 | 4.0 | 0.00 | 0.01 | 0.00 | 53 | 1015.6 |
| 20260510050016 | 41 | 300 | 1.0 | 3.0 | 0.00 | 0.02 | 0.00 | 54 | 1015.3 |
| 20260510044518 | 41 | 294 | 0.0 | 4.0 | 0.00 | 0.02 | 0.02 | 54 | 1015.3 |
| 20260510043022 | 42 | 326 | 2.0 | 8.0 | 0.00 | 0.03 | 0.02 | 53 | 1015.3 |
| 20260510041522 | 43 | 342 | 1.0 | 9.0 | 0.00 | 0.04 | 0.02 | 47 | 1015.5 |
| 20260510040012 | 43 | 291 | 3.0 | 7.0 | 0.00 | 0.04 | 0.02 | 45 | 1015.4 |
| 20260510034516 | 44 | 276 | 2.0 | 6.0 | 0.00 | 0.05 | 0.02 | 44 | 1015.2 |
| 20260510033019 | 44 | 332 | 2.0 | 10.0 | 0.00 | 0.05 | 0.02 | 44 | 1015.1 |
| 20260510031529 | 44 | 332 | 2.0 | 9.0 | 0.00 | 0.05 | 0.02 | 42 | 1014.9 |
| 20260510030023 | 44 | 281 | 2.0 | 9.0 | 0.00 | 0.05 | 0.02 | 41 | 1014.7 |
| 20260510024514 | 45 | 267 | 2.0 | 8.0 | 0.00 | 0.05 | 0.02 | 40 | 1014.4 |
| 20260510023018 | 45 | 280 | 4.0 | 11.0 | 0.00 | 0.05 | 0.02 | 39 | 1014.3 |
| 20260510021532 | 45 | 290 | 1.0 | 5.0 | 0.00 | 0.05 | 0.02 | 40 | 1014.1 |
| 20260510020029 | 46 | 275 | 2.0 | 9.0 | 0.00 | 0.05 | 0.02 | 38 | 1013.9 |
| 20260510014525 | 46 | 297 | 2.0 | 13.0 | 0.00 | 0.05 | 0.02 | 38 | 1013.7 |
| 20260510013010 | 46 | 341 | 3.0 | 10.0 | 0.00 | 0.05 | 0.02 | 36 | 1013.6 |
| 20260510011516 | 47 | 278 | 5.0 | 9.0 | 0.00 | 0.05 | 0.02 | 35 | 1013.5 |
| 20260510010022 | 47 | 293 | 4.0 | 9.0 | 0.00 | 0.05 | 0.02 | 34 | 1013.4 |
| 20260510004525 | 47 | 325 | 3.0 | 12.0 | 0.00 | 0.05 | 0.02 | 33 | 1013.3 |
| 20260510003026 | 48 | 295 | 3.0 | 11.0 | 0.00 | 0.05 | 0.02 | 33 | 1013.2 |
| 20260510001521 | 48 | 306 | 5.0 | 16.0 | 0.00 | 0.05 | 0.02 | 32 | 1013.1 |
| 20260510000020 | 48 | 275 | 2.0 | 11.0 | 0.00 | 0.05 | 0.02 | 32 | 1012.9 |
| 20260509234524 | 48 | 290 | 4.0 | 16.0 | 0.00 | 0.05 | 0.02 | 31 | 1012.8 |
| 20260509233025 | 49 | 301 | 3.0 | 12.0 | 0.00 | 0.05 | 0.02 | 30 | 1012.7 |
| 20260509231528 | 50 | 323 | 5.0 | 12.0 | 0.00 | 0.05 | 0.02 | 30 | 1012.7 |
| 20260509230016 | 49 | 311 | 5.0 | 15.0 | 0.00 | 0.05 | 0.02 | 31 | 1012.7 |
| 20260509224521 | 50 | 236 | 3.0 | 12.0 | 0.00 | 0.05 | 0.02 | 30 | 1012.5 |
| 20260509223023 | 50 | 263 | 5.0 | 15.0 | 0.00 | 0.05 | 0.02 | 29 | 1012.4 |
| 20260509221527 | 51 | 318 | 8.0 | 16.0 | 0.00 | 0.05 | 0.02 | 28 | 1012.1 |
| 20260509220028 | 50 | 305 | 4.0 | 14.0 | 0.00 | 0.05 | 0.02 | 30 | 1012.0 |
| 20260509214527 | 50 | 271 | 6.0 | 16.0 | 0.00 | 0.05 | 0.02 | 30 | 1012.0 |
| 20260509213023 | 51 | 302 | 7.0 | 17.0 | 0.00 | 0.05 | 0.02 | 29 | 1011.9 |
| 20260509211526 | 52 | 293 | 7.0 | 17.0 | 0.00 | 0.05 | 0.02 | 29 | 1011.7 |
| 20260509210033 | 52 | 287 | 6.0 | 14.0 | 0.00 | 0.05 | 0.02 | 29 | 1011.8 |
| 20260509204540 | 52 | 306 | 6.0 | 16.0 | 0.00 | 0.05 | 0.02 | 29 | 1011.5 |
| 20260509203020 | 52 | 313 | 5.0 | 13.0 | 0.00 | 0.05 | 0.02 | 32 | 1011.5 |
| 20260509201525 | 50 | 302 | 6.0 | 17.0 | 0.00 | 0.05 | 0.02 | 29 | 1011.5 |
| 20260509200011 | 50 | 321 | 6.0 | 21.0 | 0.00 | 0.05 | 0.02 | 30 | 1011.4 |
| 20260509194511 | 53 | 295 | 5.0 | 17.0 | 0.00 | 0.05 | 0.02 | 28 | 1011.2 |
| 20260509193025 | 52 | 282 | 6.0 | 16.0 | 0.00 | 0.05 | 0.02 | 29 | 1011.1 |
| 20260509191521 | 53 | 350 | 4.0 | 19.0 | 0.00 | 0.05 | 0.02 | 32 | 1011.0 |
| 20260509190005 | 52 | 257 | 6.0 | 19.0 | 0.00 | 0.05 | 0.02 | 31 | 1011.0 |
| 20260509184508 | 52 | 296 | 6.0 | 16.0 | 0.00 | 0.05 | 0.02 | 30 | 1010.9 |
| 20260509183016 | 51 | 290 | 6.0 | 17.0 | 0.00 | 0.05 | 0.02 | 31 | 1010.7 |
| 20260509181518 | 51 | 267 | 8.0 | 15.0 | 0.00 | 0.05 | 0.02 | 30 | 1010.7 |
| 20260509180023 | 51 | 296 | 6.0 | 15.0 | 0.00 | 0.05 | 0.02 | 33 | 1010.7 |
| 20260509174504 | 51 | 286 | 5.0 | 16.0 | 0.00 | 0.05 | 0.02 | 33 | 1010.6 |
| 20260509173010 | 49 | 321 | 6.0 | 13.0 | 0.00 | 0.05 | 0.02 | 35 | 1010.7 |
| 20260509171516 | 49 | 292 | 6.0 | 17.0 | 0.00 | 0.05 | 0.02 | 35 | 1010.5 |
| 20260509170018 | 50 | 280 | 4.0 | 15.0 | 0.00 | 0.05 | 0.02 | 33 | 1010.6 |
| 20260509164525 | 50 | 263 | 9.0 | 14.0 | 0.00 | 0.05 | 0.02 | 33 | 1010.6 |
| 20260509163016 | 48 | 326 | 5.0 | 16.0 | 0.00 | 0.05 | 0.02 | 38 | 1010.5 |
| 20260509161514 | 47 | 306 | 7.0 | 18.0 | 0.00 | 0.05 | 0.02 | 34 | 1010.4 |
| 20260509160020 | 47 | 286 | 3.0 | 20.0 | 0.00 | 0.05 | 0.02 | 37 | 1010.2 |
| 20260509154524 | 46 | 291 | 6.0 | 21.0 | 0.00 | 0.05 | 0.02 | 39 | 1010.1 |
| 20260509153029 | 45 | 301 | 5.0 | 14.0 | 0.00 | 0.05 | 0.02 | 39 | 1010.1 |
| 20260509151508 | 45 | 272 | 6.0 | 15.0 | 0.00 | 0.05 | 0.02 | 42 | 1010.0 |
| 20260509150019 | 45 | 244 | 4.0 | 15.0 | 0.00 | 0.05 | 0.02 | 43 | 1009.9 |
| 20260509144518 | 44 | 58 | 6.0 | 18.0 | 0.00 | 0.05 | 0.02 | 46 | 1009.6 |
| 20260509143024 | 43 | 286 | 5.0 | 14.0 | 0.00 | 0.05 | 0.02 | 43 | 1009.6 |
| 20260509141529 | 43 | 90 | 2.0 | 13.0 | 0.00 | 0.05 | 0.02 | 46 | 1009.4 |
| 20260509140010 | 42 | 289 | 6.0 | 15.0 | 0.00 | 0.05 | 0.02 | 48 | 1009.4 |
| 20260509134518 | 41 | 296 | 7.0 | 14.0 | 0.00 | 0.05 | 0.02 | 50 | 1009.2 |